Terminal Aerodrome Forecast
Issued by NWS Green Bay, WI

Home | Current Version | Previous Version | Graphics & Text | Print | Product List | Glossary On
Versions: 1 2 3 4 5 6 7 8 9 10 11 12 13 14 15 16 17 18 19 20 21 22 23 24 25 26 27 28
911
FTUS43 KGRB 151405 AAB
TAFGRB
TAF AMD
KGRB 151405Z 1514/1612 33017G28KT 3SM -SHRA BKN017 OVC024
     FM151600 33024G34KT P6SM OVC025
     FM151800 32016G25KT P6SM BKN040
     FM152200 28008KT P6SM SCT040 BKN140=

USA.gov is the U.S. government's official web portal to all federal, state and local government web resources and services.